Bessie Ellen — ZITL7 — position and weather

sailwx.info

Track history (hours):
 
Tides and Currents Weather Stations Pressure Air Temp Water Temp Dewpoint Dewpoint Depression Visibility Wind Speed Wind Dir Waves Ship Positions

Bessie Ellen

Ship's website: http://bessie-ellen.com/blog/

Last reported at 2018-Mar-25 17:44 UTC. Time now 2018-Apr-20 06:42 UTC.
Position N 48°35' W 005°14'.
Warning: this ship's position is 25 days out of date.

Length 28 m.

Type: Sailing vessel. MMSI: 235005952.

Date/timePositionNaut miles runAvg speedWind from/ knotsBaromVisibWave heightAir tempDewpointWater temp
2018-Mar-25 17:44N 48°35' W 005°14'4 4.9
2018-Mar-25 16:53N 48°34' W 005°08'4 5.3
2018-Mar-25 16:06N 48°33' W 005°02'1 5.7
2018-Mar-25 15:58N 48°32' W 005°01'2 4.8
2018-Mar-25 15:31N 48°31' W 004°58'2 4.5
2018-Mar-25 15:00N 48°30' W 004°55'2 4.0
2018-Mar-25 14:30N 48°29' W 004°53'2 3.9
2018-Mar-25 14:00N 48°28' W 004°51'2 3.5
2018-Mar-25 13:31N 48°26' W 004°50'2 3.4
2018-Mar-25 12:58N 48°24' W 004°49'2 3.4
2018-Mar-25 12:31N 48°23' W 004°49'1 2.7
2018-Mar-25 12:00N 48°21' W 004°49'2 3.0
2018-Mar-25 11:30N 48°20' W 004°48'2 3.9
2018-Mar-25 11:00N 48°18' W 004°47'3 6.1
2018-Mar-25 10:30N 48°18' W 004°42'3 6.6
2018-Mar-25 10:00N 48°18' W 004°37'2 3.3
2018-Mar-25 09:30N 48°17' W 004°35'0 0.0
2018-Mar-25 09:00N 48°17' W 004°35'0 0.0
2018-Mar-25 08:30N 48°17' W 004°35'0 0.0
2018-Mar-25 08:00N 48°17' W 004°35'0 0.0
2018-Mar-25 07:30N 48°17' W 004°35'0 0.0
2018-Mar-25 07:00N 48°17' W 004°35'0 0.0
2018-Mar-25 06:30N 48°17' W 004°35'0 0.0
2018-Mar-25 06:00N 48°17' W 004°35'0 0.0
2018-Mar-25 05:30N 48°17' W 004°35'0 0.0
2018-Mar-25 05:00N 48°17' W 004°35'0 0.0
2018-Mar-25 04:30N 48°17' W 004°35'0 0.0
2018-Mar-25 04:00N 48°17' W 004°35'0 0.0
2018-Mar-25 03:30N 48°17' W 004°35'0 0.0
2018-Mar-25 03:00N 48°17' W 004°35'0 0.0
2018-Mar-25 02:30N 48°17' W 004°35'0 0.0
2018-Mar-25 02:00N 48°17' W 004°35'0 0.0
2018-Mar-25 01:30N 48°17' W 004°35'0 0.0
2018-Mar-25 01:00N 48°17' W 004°35'0 0.0
2018-Mar-25 00:30N 48°17' W 004°35'0 0.0
2018-Mar-25 00:00N 48°17' W 004°35'0 0.0
2018-Mar-24 23:30N 48°17' W 004°35'0 0.0
2018-Mar-24 23:00N 48°17' W 004°35'0 0.0
2018-Mar-24 22:30N 48°17' W 004°35'0 0.0
2018-Mar-24 22:00N 48°17' W 004°35'0 0.0
2018-Mar-24 21:30N 48°17' W 004°35'0 0.0
2018-Mar-24 21:00N 48°17' W 004°35'0 0.0
2018-Mar-24 20:30N 48°17' W 004°35'0 0.0
2018-Mar-24 20:00N 48°17' W 004°35'0 0.0
2018-Mar-24 19:30N 48°17' W 004°35'0 0.0
2018-Mar-24 19:00N 48°17' W 004°35'0 0.0
2018-Mar-24 18:30N 48°17' W 004°35'0 0.0
2018-Mar-24 18:00N 48°17' W 004°35'0 0.0
2018-Mar-24 17:30N 48°17' W 004°35'0 0.0
2018-Mar-24 17:00N 48°17' W 004°35'0 0.0
2018-Mar-24 16:30N 48°17' W 004°35'0 0.2
2018-Mar-24 16:00N 48°17' W 004°35'1 2.1
2018-Mar-24 15:30N 48°18' W 004°36'2 4.1
2018-Mar-24 15:00N 48°20' W 004°35'3 6.0
2018-Mar-24 14:30N 48°21' W 004°31'1 1.7
2018-Mar-24 14:00N 48°21' W 004°29'1 2.6
2018-Mar-24 13:30N 48°21' W 004°31'2 4.6
2018-Mar-24 13:01N 48°20' W 004°34'2 4.0
2018-Mar-24 12:31N 48°20' W 004°37'2 3.2
2018-Mar-24 12:00N 48°18' W 004°36'1 2.8
2018-Mar-24 11:30N 48°19' W 004°37'1 2.4
2018-Mar-24 11:00N 48°18' W 004°36'1 2.7
2018-Mar-24 10:31N 48°17' W 004°35'0 0.8
2018-Mar-24 10:00N 48°17' W 004°35'0 0.0
2018-Mar-24 09:30N 48°17' W 004°35'0 0.0
2018-Mar-24 09:00N 48°17' W 004°35'0 0.0
2018-Mar-24 08:30N 48°17' W 004°35'0 0.0
2018-Mar-24 08:00N 48°17' W 004°35'0 0.0
2018-Mar-24 07:30N 48°17' W 004°35'0 0.0
2018-Mar-24 07:00N 48°17' W 004°35'0 0.0
2018-Mar-24 06:30N 48°17' W 004°35'0 0.0
2018-Mar-24 06:00N 48°17' W 004°35'0 0.0
2018-Mar-24 05:30N 48°17' W 004°35'0 0.0
2018-Mar-24 05:00N 48°17' W 004°35'0 0.0
2018-Mar-24 04:30N 48°17' W 004°35'0 0.0
2018-Mar-24 04:00N 48°17' W 004°35'0 0.0
2018-Mar-24 03:30N 48°17' W 004°35'0 0.0
2018-Mar-24 03:00N 48°17' W 004°35'0 0.0
2018-Mar-24 02:30N 48°17' W 004°35'0 0.0
2018-Mar-24 02:00N 48°17' W 004°35'0 0.0
2018-Mar-24 01:30N 48°17' W 004°35'0 0.0
2018-Mar-24 01:00N 48°17' W 004°35'0 0.0
2018-Mar-24 00:30N 48°17' W 004°35'0 0.0
2018-Mar-24 00:00N 48°17' W 004°35'0 0.0
2018-Mar-23 23:30N 48°17' W 004°35'0 0.0
2018-Mar-23 23:00N 48°17' W 004°35'0 0.0
2018-Mar-23 22:30N 48°17' W 004°35'0 0.0
2018-Mar-23 22:00N 48°17' W 004°35'0 0.0
2018-Mar-23 21:30N 48°17' W 004°35'0 0.0
2018-Mar-23 21:00N 48°17' W 004°35'0 0.0
2018-Mar-23 20:30N 48°17' W 004°35'0 0.0
2018-Mar-23 20:00N 48°17' W 004°35'0 0.0
2018-Mar-23 19:30N 48°17' W 004°35'0 0.0
2018-Mar-23 19:00N 48°17' W 004°35'0 0.0
2018-Mar-23 18:30N 48°17' W 004°35'0 0.0
2018-Mar-23 18:00N 48°17' W 004°35'0 0.0
2018-Mar-23 17:30N 48°17' W 004°35'0 0.0
2018-Mar-23 17:00N 48°17' W 004°35'0 0.0
2018-Mar-23 16:30N 48°17' W 004°35'0 0.0
2018-Mar-23 16:00N 48°17' W 004°35'0 0.0
2018-Mar-23 15:30N 48°17' W 004°35'0 0.0
2018-Mar-23 15:00N 48°17' W 004°35'0 0.0
2018-Mar-23 14:30N 48°17' W 004°35'0 0.0
2018-Mar-23 14:00N 48°17' W 004°35'0 0.0
2018-Mar-23 13:30N 48°17' W 004°35'0 0.0
2018-Mar-23 13:00N 48°17' W 004°35'0 0.0
2018-Mar-23 12:30N 48°17' W 004°35'0 0.0
2018-Mar-23 12:00N 48°17' W 004°35'0 0.0
2018-Mar-23 11:30N 48°17' W 004°35'0 0.0
2018-Mar-23 11:00N 48°17' W 004°35'0 0.0
2018-Mar-23 10:30N 48°17' W 004°35'0 0.0
2018-Mar-23 10:00N 48°17' W 004°35'0 0.0
2018-Mar-23 09:30N 48°17' W 004°35'0 0.0
2018-Mar-23 09:00N 48°17' W 004°35'0 0.0
2018-Mar-23 08:31N 48°17' W 004°35'2 3.5
2018-Mar-23 08:00N 48°18' W 004°36'2 4.3
2018-Mar-23 07:30N 48°18' W 004°40'3 5.9
2018-Mar-23 07:01N 48°17' W 004°44'3 6.2
2018-Mar-23 06:29N 48°16' W 004°48'3 5.8
2018-Mar-23 05:59N 48°14' W 004°52'6 5.9
2018-Mar-23 04:58N 48°12' W 004°60'6 6.2
2018-Mar-23 03:58N 48°08' W 005°08'  
2018-Mar-16 15:38N 39°12' W 009°37'1 6.4
2018-Mar-16 15:30N 39°11' W 009°37'3 6.2
2018-Mar-16 15:00N 39°08' W 009°37'3 6.2
2018-Mar-16 14:30N 39°05' W 009°38'3 6.2
2018-Mar-16 14:00N 39°02' W 009°38'3 6.1
2018-Mar-16 13:30N 38°59' W 009°38'3 6.1
2018-Mar-16 13:00N 38°56' W 009°38'3 6.0
2018-Mar-16 12:30N 38°53' W 009°38'3 6.0
2018-Mar-16 12:00N 38°50' W 009°38'3 5.9
2018-Mar-16 11:30N 38°47' W 009°37'3 5.8
2018-Mar-16 11:00N 38°44' W 009°37'3 5.8
2018-Mar-16 10:30N 38°41' W 009°36'3 5.1
2018-Mar-16 10:00N 38°39' W 009°36'2 4.3
2018-Mar-16 09:30N 38°36' W 009°36'2 4.9
2018-Mar-16 09:01N 38°38' W 009°33'2 4.4
2018-Mar-16 08:30N 38°39' W 009°31'2 3.3
2018-Mar-16 08:00N 38°39' W 009°29'1 2.8
2018-Mar-16 07:30N 38°39' W 009°27'2 4.4
2018-Mar-16 07:00N 38°41' W 009°25'1 1.6
2018-Mar-16 06:30N 38°42' W 009°25'0 0.0
2018-Mar-16 06:00N 38°42' W 009°25'0 0.0
2018-Mar-16 04:51N 38°42' W 009°25'0 0.0
2018-Mar-16 04:21N 38°42' W 009°25'0 0.0
2018-Mar-16 04:00N 38°42' W 009°25'0 0.0
2018-Mar-16 03:24N 38°42' W 009°25'0 0.0
2018-Mar-16 02:39N 38°42' W 009°25'0 0.0
2018-Mar-16 02:24N 38°42' W 009°25'0 0.0
2018-Mar-16 01:47N 38°42' W 009°25'0 0.0
2018-Mar-16 01:24N 38°42' W 009°25'0 0.0
2018-Mar-16 00:54N 38°42' W 009°25'0 0.0
2018-Mar-16 00:30N 38°42' W 009°25'0 0.0
2018-Mar-15 23:57N 38°42' W 009°25'0 0.0
2018-Mar-15 23:30N 38°42' W 009°25'0 0.0
2018-Mar-15 22:18N 38°42' W 009°25'  
Track history (hours):
 
Tides and Currents Weather Stations Pressure Air Temp Water Temp Dewpoint Dewpoint Depression Visibility Wind Speed Wind Dir Waves Ship Positions

Bessie Ellen

Ship's website: http://bessie-ellen.com/blog/

Last reported at 2018-Mar-25 17:44 UTC. Time now 2018-Apr-20 06:42 UTC.
Position N 48°35' W 005°14'.
Warning: this ship's position is 25 days out of date.

Length 28 m.

Type: Sailing vessel. MMSI: 235005952.

Date/timePositionNaut miles runAvg speedWind from/ knotsBaromVisibWave heightAir tempDewpointWater temp
2018-Mar-25 17:44N 48°35' W 005°14'4 4.9
2018-Mar-25 16:53N 48°34' W 005°08'4 5.3
2018-Mar-25 16:06N 48°33' W 005°02'1 5.7
2018-Mar-25 15:58N 48°32' W 005°01'2 4.8
2018-Mar-25 15:31N 48°31' W 004°58'2 4.5
2018-Mar-25 15:00N 48°30' W 004°55'2 4.0
2018-Mar-25 14:30N 48°29' W 004°53'2 3.9
2018-Mar-25 14:00N 48°28' W 004°51'2 3.5
2018-Mar-25 13:31N 48°26' W 004°50'2 3.4
2018-Mar-25 12:58N 48°24' W 004°49'2 3.4
2018-Mar-25 12:31N 48°23' W 004°49'1 2.7
2018-Mar-25 12:00N 48°21' W 004°49'2 3.0
2018-Mar-25 11:30N 48°20' W 004°48'2 3.9
2018-Mar-25 11:00N 48°18' W 004°47'3 6.1
2018-Mar-25 10:30N 48°18' W 004°42'3 6.6
2018-Mar-25 10:00N 48°18' W 004°37'2 3.3
2018-Mar-25 09:30N 48°17' W 004°35'0 0.0
2018-Mar-25 09:00N 48°17' W 004°35'0 0.0
2018-Mar-25 08:30N 48°17' W 004°35'0 0.0
2018-Mar-25 08:00N 48°17' W 004°35'0 0.0
2018-Mar-25 07:30N 48°17' W 004°35'0 0.0
2018-Mar-25 07:00N 48°17' W 004°35'0 0.0
2018-Mar-25 06:30N 48°17' W 004°35'0 0.0
2018-Mar-25 06:00N 48°17' W 004°35'0 0.0
2018-Mar-25 05:30N 48°17' W 004°35'0 0.0
2018-Mar-25 05:00N 48°17' W 004°35'0 0.0
2018-Mar-25 04:30N 48°17' W 004°35'0 0.0
2018-Mar-25 04:00N 48°17' W 004°35'0 0.0
2018-Mar-25 03:30N 48°17' W 004°35'0 0.0
2018-Mar-25 03:00N 48°17' W 004°35'0 0.0
2018-Mar-25 02:30N 48°17' W 004°35'0 0.0
2018-Mar-25 02:00N 48°17' W 004°35'0 0.0
2018-Mar-25 01:30N 48°17' W 004°35'0 0.0
2018-Mar-25 01:00N 48°17' W 004°35'0 0.0
2018-Mar-25 00:30N 48°17' W 004°35'0 0.0
2018-Mar-25 00:00N 48°17' W 004°35'0 0.0
2018-Mar-24 23:30N 48°17' W 004°35'0 0.0
2018-Mar-24 23:00N 48°17' W 004°35'0 0.0
2018-Mar-24 22:30N 48°17' W 004°35'0 0.0
2018-Mar-24 22:00N 48°17' W 004°35'0 0.0
2018-Mar-24 21:30N 48°17' W 004°35'0 0.0
2018-Mar-24 21:00N 48°17' W 004°35'0 0.0
2018-Mar-24 20:30N 48°17' W 004°35'0 0.0
2018-Mar-24 20:00N 48°17' W 004°35'0 0.0
2018-Mar-24 19:30N 48°17' W 004°35'0 0.0
2018-Mar-24 19:00N 48°17' W 004°35'0 0.0
2018-Mar-24 18:30N 48°17' W 004°35'0 0.0
2018-Mar-24 18:00N 48°17' W 004°35'0 0.0
2018-Mar-24 17:30N 48°17' W 004°35'0 0.0
2018-Mar-24 17:00N 48°17' W 004°35'0 0.0
2018-Mar-24 16:30N 48°17' W 004°35'0 0.2
2018-Mar-24 16:00N 48°17' W 004°35'1 2.1
2018-Mar-24 15:30N 48°18' W 004°36'2 4.1
2018-Mar-24 15:00N 48°20' W 004°35'3 6.0
2018-Mar-24 14:30N 48°21' W 004°31'1 1.7
2018-Mar-24 14:00N 48°21' W 004°29'1 2.6
2018-Mar-24 13:30N 48°21' W 004°31'2 4.6
2018-Mar-24 13:01N 48°20' W 004°34'2 4.0
2018-Mar-24 12:31N 48°20' W 004°37'2 3.2
2018-Mar-24 12:00N 48°18' W 004°36'1 2.8
2018-Mar-24 11:30N 48°19' W 004°37'1 2.4
2018-Mar-24 11:00N 48°18' W 004°36'1 2.7
2018-Mar-24 10:31N 48°17' W 004°35'0 0.8
2018-Mar-24 10:00N 48°17' W 004°35'0 0.0
2018-Mar-24 09:30N 48°17' W 004°35'0 0.0
2018-Mar-24 09:00N 48°17' W 004°35'0 0.0
2018-Mar-24 08:30N 48°17' W 004°35'0 0.0
2018-Mar-24 08:00N 48°17' W 004°35'0 0.0
2018-Mar-24 07:30N 48°17' W 004°35'0 0.0
2018-Mar-24 07:00N 48°17' W 004°35'0 0.0
2018-Mar-24 06:30N 48°17' W 004°35'0 0.0
2018-Mar-24 06:00N 48°17' W 004°35'0 0.0
2018-Mar-24 05:30N 48°17' W 004°35'0 0.0
2018-Mar-24 05:00N 48°17' W 004°35'0 0.0
2018-Mar-24 04:30N 48°17' W 004°35'0 0.0
2018-Mar-24 04:00N 48°17' W 004°35'0 0.0
2018-Mar-24 03:30N 48°17' W 004°35'0 0.0
2018-Mar-24 03:00N 48°17' W 004°35'0 0.0
2018-Mar-24 02:30N 48°17' W 004°35'0 0.0
2018-Mar-24 02:00N 48°17' W 004°35'0 0.0
2018-Mar-24 01:30N 48°17' W 004°35'0 0.0
2018-Mar-24 01:00N 48°17' W 004°35'0 0.0
2018-Mar-24 00:30N 48°17' W 004°35'0 0.0
2018-Mar-24 00:00N 48°17' W 004°35'0 0.0
2018-Mar-23 23:30N 48°17' W 004°35'0 0.0
2018-Mar-23 23:00N 48°17' W 004°35'0 0.0
2018-Mar-23 22:30N 48°17' W 004°35'0 0.0
2018-Mar-23 22:00N 48°17' W 004°35'0 0.0
2018-Mar-23 21:30N 48°17' W 004°35'0 0.0
2018-Mar-23 21:00N 48°17' W 004°35'0 0.0
2018-Mar-23 20:30N 48°17' W 004°35'0 0.0
2018-Mar-23 20:00N 48°17' W 004°35'0 0.0
2018-Mar-23 19:30N 48°17' W 004°35'0 0.0
2018-Mar-23 19:00N 48°17' W 004°35'0 0.0
2018-Mar-23 18:30N 48°17' W 004°35'0 0.0
2018-Mar-23 18:00N 48°17' W 004°35'0 0.0
2018-Mar-23 17:30N 48°17' W 004°35'0 0.0
2018-Mar-23 17:00N 48°17' W 004°35'0 0.0
2018-Mar-23 16:30N 48°17' W 004°35'0 0.0
2018-Mar-23 16:00N 48°17' W 004°35'0 0.0
2018-Mar-23 15:30N 48°17' W 004°35'0 0.0
2018-Mar-23 15:00N 48°17' W 004°35'0 0.0
2018-Mar-23 14:30N 48°17' W 004°35'0 0.0
2018-Mar-23 14:00N 48°17' W 004°35'0 0.0
2018-Mar-23 13:30N 48°17' W 004°35'0 0.0
2018-Mar-23 13:00N 48°17' W 004°35'0 0.0
2018-Mar-23 12:30N 48°17' W 004°35'0 0.0
2018-Mar-23 12:00N 48°17' W 004°35'0 0.0
2018-Mar-23 11:30N 48°17' W 004°35'0 0.0
2018-Mar-23 11:00N 48°17' W 004°35'0 0.0
2018-Mar-23 10:30N 48°17' W 004°35'0 0.0
2018-Mar-23 10:00N 48°17' W 004°35'0 0.0
2018-Mar-23 09:30N 48°17' W 004°35'0 0.0
2018-Mar-23 09:00N 48°17' W 004°35'0 0.0
2018-Mar-23 08:31N 48°17' W 004°35'2 3.5
2018-Mar-23 08:00N 48°18' W 004°36'2 4.3
2018-Mar-23 07:30N 48°18' W 004°40'3 5.9
2018-Mar-23 07:01N 48°17' W 004°44'3 6.2
2018-Mar-23 06:29N 48°16' W 004°48'3 5.8
2018-Mar-23 05:59N 48°14' W 004°52'6 5.9
2018-Mar-23 04:58N 48°12' W 004°60'6 6.2
2018-Mar-23 03:58N 48°08' W 005°08'  
2018-Mar-16 15:38N 39°12' W 009°37'1 6.4
2018-Mar-16 15:30N 39°11' W 009°37'3 6.2
2018-Mar-16 15:00N 39°08' W 009°37'3 6.2
2018-Mar-16 14:30N 39°05' W 009°38'3 6.2
2018-Mar-16 14:00N 39°02' W 009°38'3 6.1
2018-Mar-16 13:30N 38°59' W 009°38'3 6.1
2018-Mar-16 13:00N 38°56' W 009°38'3 6.0
2018-Mar-16 12:30N 38°53' W 009°38'3 6.0
2018-Mar-16 12:00N 38°50' W 009°38'3 5.9
2018-Mar-16 11:30N 38°47' W 009°37'3 5.8
2018-Mar-16 11:00N 38°44' W 009°37'3 5.8
2018-Mar-16 10:30N 38°41' W 009°36'3 5.1
2018-Mar-16 10:00N 38°39' W 009°36'2 4.3
2018-Mar-16 09:30N 38°36' W 009°36'2 4.9
2018-Mar-16 09:01N 38°38' W 009°33'2 4.4
2018-Mar-16 08:30N 38°39' W 009°31'2 3.3
2018-Mar-16 08:00N 38°39' W 009°29'1 2.8
2018-Mar-16 07:30N 38°39' W 009°27'2 4.4
2018-Mar-16 07:00N 38°41' W 009°25'1 1.6
2018-Mar-16 06:30N 38°42' W 009°25'0 0.0
2018-Mar-16 06:00N 38°42' W 009°25'0 0.0
2018-Mar-16 04:51N 38°42' W 009°25'0 0.0
2018-Mar-16 04:21N 38°42' W 009°25'0 0.0
2018-Mar-16 04:00N 38°42' W 009°25'0 0.0
2018-Mar-16 03:24N 38°42' W 009°25'0 0.0
2018-Mar-16 02:39N 38°42' W 009°25'0 0.0
2018-Mar-16 02:24N 38°42' W 009°25'0 0.0
2018-Mar-16 01:47N 38°42' W 009°25'0 0.0
2018-Mar-16 01:24N 38°42' W 009°25'0 0.0
2018-Mar-16 00:54N 38°42' W 009°25'0 0.0
2018-Mar-16 00:30N 38°42' W 009°25'0 0.0
2018-Mar-15 23:57N 38°42' W 009°25'0 0.0
2018-Mar-15 23:30N 38°42' W 009°25'0 0.0
2018-Mar-15 22:18N 38°42' W 009°25'  

Dump ship's entire track history